To NAV CANADA Home Page Login to a new session Search on AWWS site Feedback and Comments Disclaimer Vers la page française équivalente Tips FAQ What's new on the site To the Forecasts and Observations / NOTAM section To "File a Flight Plan" website Publications and other links Update of the User's profile FIC Telephone Numbers My Weather Data Folder Route Weather Data Regional Weather Data Local Weather Data To the Forecasts and Observations / NOTAM section
Request Generated 04/23/2014 at 22:04:28 UTC . Weather information available at that time is displayed.

METAR/TAF

OLD CROW/YT    

METAR CYOC 232200Z 05008KT 35SM FEW032 SCT085 01/M08 A2991 RMK CF2AC1
SLP147=
METAR CYOC 232100Z 06010KT 35SM FEW030 SCT034 BKN085 01/M08 A2992 RMK
CF1SC3AC1 SLP149=
METAR CYOC 232000Z 05008KT 35SM BKN033 BKN080 M00/M09 A2993 RMK
SC5AC1 SLP154=

TAF CYOC 231738Z 2318/2401 05008KT P6SM SCT020 BKN030 TEMPO 2318/2321
SCT030
FM232100 05008KT P6SM FEW030 SCT080
RMK NXT FCST WILL BE ISSUED AT 241445Z=
Your time UTC time
Weather data provided by Environment Canada and NAV CANADA